Portada
METAR-TAF:

METAR-TAF

Aeropuertos :

Aeropuerto Internacional de Shiraz

Shiraz, Irán

latitud: 29-32N, longitud: 052-35E, altitud: 1486 m

Observación

El informe se hizo hace 19 minutos, a las 04:00 UTC
Viento calma
Temperatura 14°C
Humedad 28%
Presión 1020 hPa
Visibilidad 10 km o más
sin nubes por debajo de 1500 m y sin presencia de cumulonimbus.

METAR: OISS 090400Z 00000KT CAVOK 14/M04 Q1019 A3011

Hora: 07:49 (04:19 UTC)

Pronóstico

El informe se hizo hace 5 horas y 19 minutos, a las 23:00 UTC
Pronóstico válido del 09 a las 00 UTC al 10 a las 06 UTC
Viento 8 kt del oeste
Visibilidad: 8000 m
Temporalmente
del 09 a las 08 UTC al 09 a las 14 UTC
Viento 18 kt del oeste-suroeste

TAF: OISS 082300Z 0900/1006 28008KT 8000 NSC TEMPO 0908/0914 24018KT

Observaciones y pronósticos meteorológicos de más de 4000 aeropuertos (mensajes METAR y TAF).

Los puntos amarillos y rojos representan las estaciones disponibles.

Ponga el ratón en el punto deseado para ver el nombre de la estación.

Haga clic para ver las observaciones y los pronósticos meteorológicos.

Para cambiar el mapa : haga clic en los botones verdes con una cruz de color negro para hacer un zoom, en el botón verde con un guión para alejar o en las flechas verdes para mapas adyacentes.


METAR-TAF: